Star, Idaho
Current Conditions -  °F | °C
As of 11:55 AM on Monday 20 Oct 2014 (Local Time) from KMAN Reporting Station
Clear Clear  
Wind Chill: 66°   Ceiling: Unl
Heat Index: 66°   Visibility: 7mi
Dew Point: 34°   Wind: 5mph
Humidity: 30%   Direction: 200°SSW
Pressure: 29.86"   Gusts: NA
Location:  43.69°N, 116.49°W
Report Text: KMAN 201755Z AUTO 20004KT 7SM CLR 19/01 A2986 RMK AO1
Loading
Personal Weather Stations






























Interactive Weather Map
Tropical Storm Tracking
New forecast layout! Learn more

10-Day Weather Forecast

Advertisements
Track Severe Weather on mobile